Time;durP1;ratioP1;P1;durP2;ratioP2;P2;SDS_P1;SDS_P2;PMS_P1;PMS_P2;Temp;Humidity;BMP_temperature;BMP_pressure;BME280_temperature;BME280_humidity;BME280_pressure;Samples;Min_cycle;Max_cycle;Signal;HPM_P1;HPM_P2
2021/09/21 00:06:32;;;;;;;0.52;0.40;;;11.00;77.60;;;;;;4749877;30;20047;-80
2021/09/21 00:08:57;;;;;;;0.20;0.20;;;11.10;77.60;;;;;;4790882;29;20120;-80
2021/09/21 00:11:23;;;;;;;0.35;0.30;;;11.00;78.10;;;;;;4797399;29;20062;-83
2021/09/21 00:13:49;;;;;;;0.80;0.22;;;11.00;77.50;;;;;;4803807;29;20503;-84
2021/09/21 00:16:16;;;;;;;0.40;0.32;;;11.00;77.40;;;;;;4803839;29;20217;-80
2021/09/21 00:18:41;;;;;;;0.20;0.20;;;10.90;77.50;;;;;;4804203;29;20043;-81
2021/09/21 00:21:07;;;;;;;0.30;0.30;;;10.90;77.60;;;;;;4804502;29;20039;-83
2021/09/21 00:23:33;;;;;;;0.30;0.22;;;10.90;77.70;;;;;;4788969;29;20050;-83
2021/09/21 00:25:59;;;;;;;0.25;0.25;;;10.90;77.80;;;;;;4804271;29;20396;-82
2021/09/21 00:28:26;;;;;;;0.30;0.30;;;10.90;77.90;;;;;;4804269;29;20093;-81
2021/09/21 00:30:52;;;;;;;0.30;0.30;;;10.90;78.00;;;;;;4803795;29;20055;-82
2021/09/21 00:33:21;;;;;;;0.30;0.30;;;10.80;78.00;;;;;;4862013;29;20059;-82
2021/09/21 00:35:51;;;;;;;0.38;0.38;;;10.70;78.10;;;;;;4882561;29;20406;-82
2021/09/21 00:38:18;;;;;;;0.32;0.30;;;10.70;78.20;;;;;;4865840;29;20033;-83
2021/09/21 00:40:45;;;;;;;0.35;0.32;;;10.60;78.30;;;;;;4896664;29;20476;-83
2021/09/21 00:43:11;;;;;;;0.68;0.40;;;10.60;78.40;;;;;;4898694;29;20040;-82
2021/09/21 00:45:38;;;;;;;0.22;0.20;;;10.60;78.50;;;;;;4865671;29;20039;-82
2021/09/21 00:48:05;;;;;;;0.20;0.20;;;10.50;78.60;;;;;;4881255;29;20045;-80
2021/09/21 00:50:31;;;;;;;0.28;0.20;;;10.50;79.30;;;;;;4897533;29;20395;-82
2021/09/21 00:53:00;;;;;;;0.25;0.25;;;10.40;78.70;;;;;;4880729;29;20045;-81
2021/09/21 00:55:26;;;;;;;0.30;0.30;;;10.50;78.80;;;;;;4905038;29;20059;-84
2021/09/21 00:57:52;;;;;;;0.20;0.20;;;10.40;78.80;;;;;;4849896;29;20033;-84
2021/09/21 01:00:21;;;;;;;0.73;0.30;;;10.40;78.80;;;;;;4881016;29;20051;-84
2021/09/21 01:02:47;;;;;;;0.30;0.30;;;10.40;78.90;;;;;;4898653;29;20045;-83
2021/09/21 01:05:13;;;;;;;0.30;0.30;;;10.40;78.90;;;;;;4897322;29;20041;-83
2021/09/21 01:07:41;;;;;;;0.30;0.28;;;10.40;79.00;;;;;;4865359;29;20037;-83
2021/09/21 01:10:14;;;;;;;0.47;0.40;;;10.40;79.00;;;;;;4851813;29;20391;-82
2021/09/21 01:13:12;;;;;;;0.20;0.20;;;10.30;79.00;;;;;;4882675;29;20049;-91
2021/09/21 01:15:44;;;;;;;0.38;0.30;;;10.30;79.00;;;;;;4880317;29;20053;-90
2021/09/21 01:18:10;;;;;;;0.40;0.40;;;10.40;79.10;;;;;;4851114;29;20101;-84
2021/09/21 01:20:36;;;;;;;0.43;0.43;;;10.40;79.10;;;;;;4886012;29;20040;-80
2021/09/21 01:23:10;;;;;;;0.30;0.30;;;10.40;79.10;;;;;;4890843;29;20038;-83
2021/09/21 01:25:36;;;;;;;0.43;0.40;;;10.30;79.00;;;;;;4895394;29;20057;-79
2021/09/21 01:28:12;;;;;;;0.43;0.43;;;10.40;79.00;;;;;;4876440;29;20051;-80
2021/09/21 01:30:37;;;;;;;0.55;0.40;;;10.30;79.00;;;;;;4878002;29;20105;-80
2021/09/21 01:33:04;;;;;;;0.40;0.40;;;10.30;79.00;;;;;;4895102;29;20045;-80
2021/09/21 01:35:36;;;;;;;0.40;0.40;;;10.40;79.10;;;;;;4877291;29;20260;-80
2021/09/21 01:38:02;;;;;;;0.50;0.43;;;10.30;79.10;;;;;;4891894;29;20053;-80
2021/09/21 01:40:28;;;;;;;0.40;0.40;;;10.20;79.10;;;;;;4878814;29;20096;-80
2021/09/21 01:42:54;;;;;;;0.20;0.20;;;10.20;79.20;;;;;;4894351;29;20053;-80
2021/09/21 01:45:20;;;;;;;1.42;0.57;;;10.20;79.30;;;;;;4878592;29;20041;-79
2021/09/21 01:47:48;;;;;;;0.60;0.30;;;10.10;79.30;;;;;;4892971;29;20041;-80
2021/09/21 01:50:21;;;;;;;0.40;0.40;;;10.10;79.40;;;;;;4892761;29;20055;-80
2021/09/21 01:53:11;;;;;;;0.10;0.10;;;10.00;79.50;;;;;;4894679;29;20044;-80
2021/09/21 01:58:19;;;;;;;0.57;0.40;;;10.00;79.70;;;;;;4877100;29;20045;-80
2021/09/21 02:00:45;;;;;;;0.40;0.35;;;10.00;79.70;;;;;;4878029;29;20137;-79
2021/09/21 02:03:10;;;;;;;0.30;0.30;;;9.90;79.70;;;;;;4876864;29;20057;-79
2021/09/21 02:05:36;;;;;;;0.40;0.40;;;9.90;79.80;;;;;;4877808;29;20049;-80
2021/09/21 02:08:02;;;;;;;0.43;0.43;;;9.90;79.90;;;;;;4890892;29;20056;-80
2021/09/21 02:10:28;;;;;;;0.45;0.45;;;9.80;79.90;;;;;;4883364;29;20496;-80
2021/09/21 02:12:54;;;;;;;0.40;0.40;;;9.80;79.90;;;;;;4901303;29;20057;-80
2021/09/21 02:15:21;;;;;;;0.38;0.30;;;9.80;79.90;;;;;;4902353;29;20037;-80
2021/09/21 02:17:48;;;;;;;0.50;0.40;;;9.90;80.10;;;;;;4887632;29;20025;-81
2021/09/21 02:20:14;;;;;;;0.43;0.38;;;9.80;80.00;;;;;;4903072;29;20049;-81
2021/09/21 02:22:40;;;;;;;0.30;0.30;;;9.70;80.10;;;;;;4871687;29;20047;-80
2021/09/21 02:25:07;;;;;;;0.28;0.28;;;9.60;80.10;;;;;;4871757;29;20530;-79
2021/09/21 02:27:33;;;;;;;0.57;0.50;;;9.60;80.10;;;;;;4886519;29;20040;-79
2021/09/21 02:29:59;;;;;;;0.47;0.45;;;9.70;80.30;;;;;;4884902;29;20060;-80
2021/09/21 02:32:24;;;;;;;0.60;0.40;;;9.60;80.40;;;;;;4916960;29;20041;-80
2021/09/21 02:34:50;;;;;;;0.80;0.60;;;9.60;80.40;;;;;;4901956;29;20118;-80
2021/09/21 02:37:17;;;;;;;0.55;0.47;;;9.60;80.40;;;;;;4872719;29;20105;-80
2021/09/21 02:39:43;;;;;;;0.63;0.43;;;9.50;80.50;;;;;;4887304;29;20057;-80
2021/09/21 02:42:09;;;;;;;0.22;0.22;;;9.60;80.70;;;;;;4918393;29;20131;-80
2021/09/21 02:44:36;;;;;;;0.30;0.30;;;9.50;80.70;;;;;;4871685;29;20060;-80
2021/09/21 02:47:03;;;;;;;0.28;0.22;;;9.40;80.60;;;;;;4917379;29;20024;-80
2021/09/21 02:49:31;;;;;;;0.40;0.40;;;9.60;80.80;;;;;;4900102;29;20033;-81
2021/09/21 02:51:57;;;;;;;0.30;0.30;;;9.50;80.70;;;;;;4899763;29;20104;-80
2021/09/21 02:54:23;;;;;;;0.50;0.47;;;9.40;80.70;;;;;;4874581;29;20068;-81
2021/09/21 02:56:49;;;;;;;0.50;0.40;;;9.40;80.60;;;;;;4890443;29;20056;-81
2021/09/21 02:59:14;;;;;;;0.30;0.30;;;9.40;80.70;;;;;;4922314;29;20092;-80
2021/09/21 03:01:40;;;;;;;0.20;0.20;;;9.40;80.80;;;;;;4890272;29;20021;-82
2021/09/21 03:04:13;;;;;;;0.45;0.43;;;9.40;80.80;;;;;;4920691;29;20029;-81
2021/09/21 03:06:44;;;;;;;0.90;0.50;;;9.40;80.90;;;;;;4889838;29;20515;-81
2021/09/21 03:11:55;;;;;;;0.30;0.30;;;9.30;81.00;;;;;;4906217;29;20076;-80
2021/09/21 03:19:38;;;;;;;0.50;0.50;;;9.20;81.10;;;;;;4905309;29;20044;-81
2021/09/21 03:22:03;;;;;;;0.40;0.40;;;9.20;81.10;;;;;;4888641;29;20032;-81
2021/09/21 03:24:30;;;;;;;0.85;0.40;;;9.20;81.20;;;;;;4903211;29;20045;-81
2021/09/21 03:26:57;;;;;;;0.57;0.32;;;9.10;81.30;;;;;;4920387;29;20057;-80
2021/09/21 03:29:23;;;;;;;0.30;0.30;;;9.20;81.40;;;;;;4871704;29;20072;-80
2021/09/21 03:31:48;;;;;;;0.30;0.30;;;9.20;81.40;;;;;;4920099;29;20020;-80
2021/09/21 03:34:14;;;;;;;0.20;0.20;;;9.10;81.40;;;;;;4919136;29;20100;-80
2021/09/21 03:36:40;;;;;;;0.57;0.45;;;9.00;81.30;;;;;;4886643;29;20122;-80
2021/09/21 03:39:06;;;;;;;0.47;0.40;;;9.10;81.40;;;;;;4917868;29;20041;-80
2021/09/21 03:41:31;;;;;;;0.63;0.40;;;9.10;81.50;;;;;;4919513;29;20033;-80
2021/09/21 03:43:57;;;;;;;0.80;0.45;;;9.00;81.50;;;;;;4903213;29;20069;-79
2021/09/21 03:46:23;;;;;;;0.30;0.30;;;9.10;81.60;;;;;;4872847;29;20049;-80
2021/09/21 03:48:49;;;;;;;0.40;0.40;;;9.00;81.60;;;;;;4887922;29;20028;-79
2021/09/21 03:51:15;;;;;;;0.45;0.40;;;9.00;81.70;;;;;;4903618;29;20052;-79
2021/09/21 03:53:40;;;;;;;0.40;0.40;;;9.00;81.70;;;;;;4873919;29;20060;-79
2021/09/21 03:56:06;;;;;;;0.30;0.30;;;8.90;81.70;;;;;;4889555;29;20056;-80
2021/09/21 03:58:32;;;;;;;0.85;0.50;;;8.90;81.80;;;;;;4905596;29;20056;-79
2021/09/21 04:00:58;;;;;;;0.47;0.40;;;8.90;81.90;;;;;;4890229;29;20065;-79
2021/09/21 04:03:23;;;;;;;0.65;0.45;;;8.90;81.80;;;;;;4920385;29;20145;-79
2021/09/21 04:05:49;;;;;;;0.45;0.30;;;8.80;81.80;;;;;;4915821;29;20044;-80
2021/09/21 04:08:15;;;;;;;0.43;0.43;;;8.90;81.90;;;;;;4884266;29;20064;-78
2021/09/21 04:10:41;;;;;;;0.40;0.40;;;8.80;81.90;;;;;;4883810;29;20104;-79
2021/09/21 04:13:06;;;;;;;0.50;0.40;;;8.80;81.90;;;;;;4883970;29;20056;-80
2021/09/21 04:15:32;;;;;;;0.63;0.43;;;8.80;81.90;;;;;;4917253;29;20092;-80
2021/09/21 04:17:58;;;;;;;0.55;0.40;;;8.80;82.00;;;;;;4869524;29;20044;-78
2021/09/21 04:20:24;;;;;;;0.35;0.35;;;8.80;82.00;;;;;;4916686;29;20029;-79
2021/09/21 04:22:50;;;;;;;0.30;0.30;;;8.80;82.10;;;;;;4885500;29;20040;-79
2021/09/21 04:25:16;;;;;;;0.60;0.50;;;8.80;82.20;;;;;;4885076;29;20076;-79
2021/09/21 04:27:42;;;;;;;1.08;0.50;;;8.80;82.10;;;;;;4915932;29;20063;-79
2021/09/21 04:30:09;;;;;;;0.35;0.35;;;8.80;82.20;;;;;;4883766;29;20499;-79
2021/09/21 04:32:35;;;;;;;0.85;0.50;;;8.80;82.10;;;;;;4900156;29;20048;-79
2021/09/21 04:35:01;;;;;;;0.30;0.30;;;8.80;82.10;;;;;;4917393;29;20040;-79
2021/09/21 04:37:27;;;;;;;0.75;0.55;;;8.80;82.10;;;;;;4884535;29;20563;-79
2021/09/21 04:39:53;;;;;;;0.80;0.60;;;8.80;82.10;;;;;;4883623;29;20460;-79
2021/09/21 04:42:21;;;;;;;0.35;0.32;;;8.80;82.00;;;;;;4915185;29;20109;-79
2021/09/21 04:44:48;;;;;;;0.50;0.40;;;8.80;82.00;;;;;;4898968;29;20021;-79
2021/09/21 04:47:13;;;;;;;0.50;0.50;;;8.80;81.90;;;;;;4878739;29;20708;-79
2021/09/21 04:49:39;;;;;;;0.45;0.40;;;8.90;82.00;;;;;;4875299;29;20033;-78
2021/09/21 04:52:05;;;;;;;0.47;0.40;;;8.90;82.60;;;;;;4890143;29;20133;-78
2021/09/21 04:54:30;;;;;;;0.65;0.40;;;8.90;82.00;;;;;;4892267;29;20032;-78
2021/09/21 04:56:56;;;;;;;0.40;0.40;;;9.00;82.00;;;;;;4889162;29;20539;-78
2021/09/21 04:59:22;;;;;;;0.30;0.30;;;9.00;82.00;;;;;;4878385;29;20502;-78
2021/09/21 05:01:48;;;;;;;0.40;0.40;;;9.00;81.90;;;;;;4905989;29;20498;-78
2021/09/21 05:04:13;;;;;;;0.65;0.43;;;9.00;81.90;;;;;;4905932;29;20132;-78
2021/09/21 05:06:39;;;;;;;0.30;0.30;;;9.10;82.00;;;;;;4890697;29;20092;-78
2021/09/21 05:09:09;;;;;;;0.40;0.40;;;9.10;82.00;;;;;;4873970;29;20040;-79
2021/09/21 05:11:35;;;;;;;0.50;0.40;;;9.10;82.00;;;;;;4874316;29;20037;-78
2021/09/21 05:14:01;;;;;;;0.40;0.38;;;9.20;81.90;;;;;;4891881;29;20048;-78
2021/09/21 05:16:26;;;;;;;1.00;0.50;;;9.20;81.90;;;;;;4907005;29;20033;-78
2021/09/21 05:18:52;;;;;;;0.43;0.40;;;9.20;81.90;;;;;;4888962;29;20100;-78
2021/09/21 05:21:18;;;;;;;0.98;0.60;;;9.20;82.00;;;;;;4904856;29;20033;-78
2021/09/21 05:23:43;;;;;;;0.50;0.40;;;9.30;82.00;;;;;;4872829;29;20480;-78
2021/09/21 05:26:09;;;;;;;0.60;0.60;;;9.30;81.90;;;;;;4887360;29;20047;-78
2021/09/21 05:28:35;;;;;;;0.50;0.47;;;9.30;81.90;;;;;;4856983;29;20051;-78
2021/09/21 05:31:00;;;;;;;0.20;0.20;;;9.40;81.90;;;;;;4903844;29;20036;-78
2021/09/21 05:33:26;;;;;;;0.60;0.40;;;9.50;81.90;;;;;;4872127;29;20072;-78
2021/09/21 05:35:53;;;;;;;0.75;0.57;;;9.40;81.90;;;;;;4865392;29;20049;-79
2021/09/21 05:38:18;;;;;;;0.65;0.40;;;9.50;81.80;;;;;;4864824;29;20055;-78
2021/09/21 05:40:44;;;;;;;0.55;0.43;;;9.50;81.80;;;;;;4866177;29;20036;-78
2021/09/21 05:43:10;;;;;;;0.73;0.45;;;9.60;81.90;;;;;;4864884;29;20076;-78
2021/09/21 05:45:36;;;;;;;0.63;0.50;;;9.60;81.80;;;;;;4881784;29;20048;-78
2021/09/21 05:48:01;;;;;;;0.75;0.45;;;9.70;81.80;;;;;;4895934;29;20033;-78
2021/09/21 05:50:27;;;;;;;0.25;0.25;;;9.70;81.90;;;;;;4881055;29;20047;-78
2021/09/21 05:52:53;;;;;;;0.30;0.30;;;9.70;81.90;;;;;;4865528;29;20065;-79
2021/09/21 05:55:19;;;;;;;0.30;0.30;;;9.70;81.80;;;;;;4851421;29;20072;-78
2021/09/21 05:57:45;;;;;;;0.55;0.47;;;9.80;81.80;;;;;;4895499;29;20044;-78
2021/09/21 06:00:12;;;;;;;0.50;0.50;;;9.90;81.90;;;;;;4865214;29;20044;-79
2021/09/21 06:02:38;;;;;;;0.45;0.35;;;9.90;81.90;;;;;;4880267;29;20554;-79
2021/09/21 06:05:05;;;;;;;0.38;0.38;;;9.90;81.80;;;;;;4898573;29;20047;-79
2021/09/21 06:07:31;;;;;;;0.70;0.47;;;10.00;81.80;;;;;;4884230;29;20077;-79
2021/09/21 06:09:57;;;;;;;0.45;0.40;;;10.00;81.90;;;;;;4883846;29;20036;-78
2021/09/21 06:12:23;;;;;;;0.60;0.60;;;10.00;81.80;;;;;;4883643;29;20048;-79
2021/09/21 06:14:48;;;;;;;0.98;0.50;;;10.10;81.90;;;;;;4883312;29;20157;-79
2021/09/21 06:17:14;;;;;;;1.30;0.50;;;10.10;81.90;;;;;;4900624;29;20032;-76
2021/09/21 06:19:40;;;;;;;0.63;0.50;;;10.20;81.90;;;;;;4899960;29;20029;-78
2021/09/21 06:22:05;;;;;;;0.40;0.40;;;10.20;81.90;;;;;;4867630;29;20033;-79
2021/09/21 06:24:31;;;;;;;0.50;0.50;;;10.30;81.80;;;;;;4882968;29;20348;-78
2021/09/21 06:26:57;;;;;;;1.00;0.55;;;10.40;81.80;;;;;;4852135;29;20120;-78
2021/09/21 06:29:23;;;;;;;0.57;0.50;;;10.40;81.80;;;;;;4852008;29;20028;-78
2021/09/21 06:31:48;;;;;;;0.93;0.60;;;10.50;81.80;;;;;;4852372;29;20037;-77
2021/09/21 06:34:14;;;;;;;0.50;0.50;;;10.50;81.70;;;;;;4903126;29;20567;-81
2021/09/21 06:36:40;;;;;;;0.57;0.50;;;10.50;81.70;;;;;;4852707;29;20049;-82
2021/09/21 06:39:05;;;;;;;0.38;0.38;;;10.60;81.70;;;;;;4883495;29;20040;-82
2021/09/21 06:41:31;;;;;;;0.52;0.50;;;10.70;81.70;;;;;;4871501;29;20498;-82
2021/09/21 06:43:57;;;;;;;0.50;0.50;;;10.70;81.60;;;;;;4868007;29;20049;-82
2021/09/21 06:46:23;;;;;;;0.40;0.40;;;10.80;81.60;;;;;;4884108;29;20033;-79
2021/09/21 06:48:48;;;;;;;0.73;0.40;;;10.90;81.70;;;;;;4900167;29;20068;-76
2021/09/21 06:51:14;;;;;;;1.15;0.50;;;10.80;81.50;;;;;;4867334;29;20123;-76
2021/09/21 06:53:40;;;;;;;0.80;0.50;;;11.00;81.50;;;;;;4900124;29;20033;-76
2021/09/21 06:56:05;;;;;;;0.60;0.50;;;11.10;81.50;;;;;;4899765;29;20048;-77
2021/09/21 06:58:33;;;;;;;0.65;0.60;;;11.10;81.50;;;;;;4900052;29;20499;-77
2021/09/21 07:00:59;;;;;;;0.75;0.50;;;11.20;81.50;;;;;;4870176;29;20041;-83
2021/09/21 07:03:25;;;;;;;0.68;0.60;;;11.20;81.90;;;;;;4880531;29;20093;-78
2021/09/21 07:05:53;;;;;;;0.98;0.63;;;11.30;81.40;;;;;;4880489;29;20116;-81
2021/09/21 07:08:19;;;;;;;0.65;0.43;;;11.40;81.40;;;;;;4914461;29;20045;-82
2021/09/21 07:11:24;;;;;;;0.80;0.60;;;11.40;81.30;;;;;;4854770;29;20056;-87
2021/09/21 07:14:05;;;;;;;0.60;0.50;;;11.60;81.40;;;;;;4881931;29;20128;-83
2021/09/21 07:21:05;;;;;;;1.42;0.47;;;11.80;81.20;;;;;;4781770;29;20130;-83
2021/09/21 07:28:01;;;;;;;0.50;0.50;;;12.00;81.00;;;;;;4679263;30;20054;-87
2021/09/21 07:30:42;;;;;;;0.68;0.55;;;12.10;80.90;;;;;;4647535;30;20114;-85
2021/09/21 07:33:34;;;;;;;0.50;0.50;;;12.10;80.90;;;;;;4647429;30;20456;-85
2021/09/21 07:36:00;;;;;;;0.82;0.50;;;12.20;80.90;;;;;;4607216;31;20066;-83
2021/09/21 07:38:26;;;;;;;0.80;0.52;;;12.30;80.80;;;;;;4618906;31;20059;-81
2021/09/21 07:40:54;;;;;;;1.17;0.80;;;12.30;80.80;;;;;;4627311;30;20059;-80
2021/09/21 07:46:59;;;;;;;0.68;0.47;;;12.30;81.00;;;;;;4608258;31;20103;-83
2021/09/21 07:49:25;;;;;;;0.40;0.40;;;12.40;81.10;;;;;;4611809;31;20107;-83
2021/09/21 07:51:51;;;;;;;0.43;0.43;;;12.40;81.00;;;;;;4599585;31;20048;-81
2021/09/21 07:54:17;;;;;;;0.77;0.50;;;12.50;81.20;;;;;;4610101;31;20134;-78
2021/09/21 07:56:43;;;;;;;1.00;0.70;;;12.50;81.20;;;;;;4605658;30;20047;-80
2021/09/21 07:59:11;;;;;;;0.68;0.52;;;12.60;81.30;;;;;;4632302;30;20054;-79
2021/09/21 08:01:42;;;;;;;0.65;0.65;;;12.60;81.20;;;;;;4633594;30;20054;-82
2021/09/21 08:04:08;;;;;;;0.52;0.45;;;12.80;81.40;;;;;;4670432;30;20058;-81
2021/09/21 08:06:59;;;;;;;0.95;0.60;;;12.80;81.30;;;;;;4731126;30;20044;-87
2021/09/21 08:13:18;;;;;;;0.75;0.40;;;13.00;81.20;;;;;;4663616;30;20145;-80
2021/09/21 08:15:51;;;;;;;0.40;0.40;;;13.20;80.90;;;;;;4632837;30;20065;-79
2021/09/21 08:21:45;;;;;;;0.55;0.50;;;13.40;80.50;;;;;;4628655;30;20066;-80
2021/09/21 08:24:14;;;;;;;0.73;0.65;;;13.60;80.40;;;;;;4614024;30;20409;-83
2021/09/21 08:26:43;;;;;;;0.65;0.40;;;13.60;80.20;;;;;;4619143;30;20502;-85
2021/09/21 08:29:09;;;;;;;0.77;0.70;;;13.80;80.10;;;;;;4634681;30;20122;-83
2021/09/21 08:31:34;;;;;;;0.77;0.50;;;13.90;79.90;;;;;;4633461;30;20179;-83
2021/09/21 08:34:00;;;;;;;0.43;0.40;;;14.10;79.90;;;;;;4664161;30;20045;-82
2021/09/21 08:36:26;;;;;;;0.50;0.40;;;14.00;79.70;;;;;;4663733;30;20109;-82
2021/09/21 08:38:55;;;;;;;0.40;0.40;;;14.10;79.70;;;;;;4649436;30;20050;-81
2021/09/21 08:41:20;;;;;;;1.30;0.47;;;14.10;79.70;;;;;;4649488;30;20050;-82
2021/09/21 08:43:46;;;;;;;0.40;0.40;;;14.20;79.70;;;;;;4646042;30;20149;-82
2021/09/21 08:46:13;;;;;;;0.68;0.60;;;14.30;79.50;;;;;;4630905;30;20043;-82
2021/09/21 08:48:39;;;;;;;1.00;0.60;;;14.40;79.90;;;;;;4641825;30;20049;-81
2021/09/21 08:51:05;;;;;;;1.08;0.60;;;14.50;79.10;;;;;;4791378;29;20060;-81
2021/09/21 08:53:30;;;;;;;0.80;0.60;;;14.60;79.00;;;;;;4804590;29;20042;-81
2021/09/21 08:55:56;;;;;;;0.40;0.40;;;14.70;78.90;;;;;;4773543;29;20175;-82
2021/09/21 08:58:25;;;;;;;0.45;0.45;;;14.80;78.70;;;;;;4826512;29;20049;-82
2021/09/21 09:00:50;;;;;;;0.75;0.50;;;14.80;78.50;;;;;;4881681;29;20503;-83
2021/09/21 09:03:19;;;;;;;0.50;0.50;;;14.90;78.30;;;;;;4865279;29;20047;-82
2021/09/21 09:05:48;;;;;;;0.50;0.40;;;14.90;78.10;;;;;;4896703;29;20049;-82
2021/09/21 09:08:17;;;;;;;0.65;0.65;;;15.00;78.00;;;;;;4895876;29;20048;-81
2021/09/21 09:10:43;;;;;;;0.65;0.60;;;15.10;78.00;;;;;;4865760;29;20516;-82
2021/09/21 09:13:17;;;;;;;2.20;0.60;;;15.10;77.80;;;;;;4864987;29;20058;-84
2021/09/21 09:15:53;;;;;;;0.65;0.60;;;15.20;77.70;;;;;;4865684;29;20114;-84
2021/09/21 09:18:25;;;;;;;0.45;0.43;;;15.20;77.70;;;;;;4885019;29;20052;-82
2021/09/21 09:20:51;;;;;;;1.17;0.75;;;15.20;77.70;;;;;;4898373;29;20049;-82
2021/09/21 09:23:17;;;;;;;1.00;0.63;;;15.30;77.60;;;;;;4896036;29;20044;-84
2021/09/21 09:25:44;;;;;;;1.60;0.73;;;15.30;77.60;;;;;;4865397;29;20045;-83
2021/09/21 09:28:27;;;;;;;0.88;0.63;;;15.30;77.60;;;;;;4897380;29;20056;-82
2021/09/21 09:30:54;;;;;;;0.95;0.50;;;15.30;77.40;;;;;;4880902;29;20096;-82
2021/09/21 09:33:21;;;;;;;0.60;0.60;;;15.30;77.40;;;;;;4865003;29;20111;-82
2021/09/21 09:35:49;;;;;;;0.63;0.50;;;15.30;77.30;;;;;;4864779;29;20523;-82
2021/09/21 09:42:49;;;;;;;0.45;0.45;;;15.40;77.00;;;;;;4767366;30;20043;-86
2021/09/21 09:46:22;;;;;;;0.50;0.50;;;15.50;77.00;;;;;;4749852;30;20080;-87
2021/09/21 09:50:11;;;;;;;0.80;0.50;;;15.50;76.80;;;;;;4700636;30;20470;-86
2021/09/21 09:53:00;;;;;;;0.50;0.50;;;15.50;76.60;;;;;;4684370;30;20058;-85
2021/09/21 09:55:27;;;;;;;0.30;0.30;;;15.60;76.60;;;;;;4686171;30;20474;-82
2021/09/21 09:57:52;;;;;;;1.42;0.70;;;15.60;76.30;;;;;;4697358;30;20041;-82
2021/09/21 10:00:18;;;;;;;0.50;0.40;;;15.60;76.20;;;;;;4699152;30;20045;-83
2021/09/21 10:02:44;;;;;;;0.52;0.40;;;15.60;76.10;;;;;;4697658;30;20045;-83
2021/09/21 10:05:10;;;;;;;0.40;0.40;;;15.70;76.10;;;;;;4692899;30;20046;-83
2021/09/21 10:07:37;;;;;;;0.43;0.43;;;15.70;76.00;;;;;;4693833;30;20077;-83
2021/09/21 10:10:03;;;;;;;0.77;0.70;;;15.80;75.80;;;;;;4686541;30;20078;-83
2021/09/21 10:12:29;;;;;;;0.73;0.50;;;15.80;75.60;;;;;;4684733;30;20033;-83
2021/09/21 10:15:02;;;;;;;0.80;0.60;;;15.90;75.40;;;;;;4700044;30;20053;-85
2021/09/21 10:17:33;;;;;;;1.23;0.70;;;15.90;75.30;;;;;;4678723;30;20124;-84
2021/09/21 10:19:59;;;;;;;0.50;0.50;;;15.80;75.10;;;;;;4707342;30;20045;-84
2021/09/21 10:22:28;;;;;;;0.40;0.40;;;15.90;75.10;;;;;;4752633;30;20112;-82
2021/09/21 10:25:09;;;;;;;0.57;0.57;;;15.90;74.90;;;;;;4776469;30;20554;-81
2021/09/21 10:27:37;;;;;;;0.40;0.40;;;15.90;74.70;;;;;;4788793;30;20039;-77
2021/09/21 10:30:06;;;;;;;1.05;0.60;;;16.00;74.60;;;;;;4858293;29;20056;-79
2021/09/21 10:32:41;;;;;;;0.50;0.50;;;16.00;74.50;;;;;;4847074;29;20082;-78
2021/09/21 10:35:11;;;;;;;0.40;0.40;;;16.00;74.30;;;;;;4842116;29;20129;-77
2021/09/21 10:37:36;;;;;;;0.40;0.40;;;16.10;74.20;;;;;;4843463;29;20042;-77
2021/09/21 10:40:05;;;;;;;0.60;0.50;;;16.10;74.20;;;;;;4867193;29;20046;-78
2021/09/21 10:42:31;;;;;;;1.67;0.73;;;16.10;74.10;;;;;;4877995;29;20064;-78
2021/09/21 10:45:01;;;;;;;0.45;0.35;;;16.10;73.90;;;;;;4869303;29;20108;-81
2021/09/21 10:47:36;;;;;;;0.45;0.40;;;16.20;73.80;;;;;;4880402;29;20036;-78
2021/09/21 10:50:15;;;;;;;1.60;0.40;;;16.30;73.60;;;;;;4849391;29;20032;-81
2021/09/21 10:52:41;;;;;;;0.43;0.43;;;16.30;73.40;;;;;;4849230;29;20040;-79
2021/09/21 10:55:11;;;;;;;0.93;0.60;;;16.30;73.30;;;;;;4850640;29;20074;-79
2021/09/21 10:57:43;;;;;;;0.47;0.43;;;16.40;73.20;;;;;;4852555;29;20041;-82
2021/09/21 11:00:10;;;;;;;;;;;16.50;73.20;;;;;;4874792;29;20044;-79
2021/09/21 11:02:41;;;;;;;0.40;0.40;;;16.40;73.10;;;;;;4916662;29;19915;-79
2021/09/21 11:05:14;;;;;;;0.77;0.50;;;16.40;73.10;;;;;;4899269;29;20052;-81
2021/09/21 11:07:54;;;;;;;0.40;0.40;;;16.50;72.90;;;;;;4852914;29;20152;-82
2021/09/21 11:10:21;;;;;;;0.63;0.45;;;16.50;72.80;;;;;;4853456;29;20044;-81
2021/09/21 11:12:52;;;;;;;0.50;0.40;;;16.60;72.80;;;;;;4847210;29;20063;-81
2021/09/21 11:15:21;;;;;;;0.40;0.40;;;16.70;72.60;;;;;;4848316;29;20520;-76
2021/09/21 11:17:47;;;;;;;0.45;0.45;;;16.70;72.40;;;;;;4867495;29;20124;-82
2021/09/21 11:20:25;;;;;;;0.38;0.38;;;16.80;72.30;;;;;;4844881;29;20045;-81
2021/09/21 11:22:51;;;;;;;0.45;0.45;;;16.80;72.20;;;;;;4872971;29;20049;-79
2021/09/21 11:25:22;;;;;;;0.40;0.40;;;16.90;72.20;;;;;;4869218;29;20060;-84
2021/09/21 11:27:48;;;;;;;0.50;0.47;;;16.90;72.00;;;;;;4834791;29;20069;-80
2021/09/21 11:30:15;;;;;;;0.50;0.50;;;17.00;72.00;;;;;;4850006;29;20123;-81
2021/09/21 11:32:42;;;;;;;0.52;0.52;;;17.00;71.80;;;;;;4850244;29;20197;-81
2021/09/21 11:35:17;;;;;;;0.30;0.30;;;17.10;71.80;;;;;;4835876;29;20144;-81
2021/09/21 11:37:46;;;;;;;0.50;0.50;;;17.10;71.70;;;;;;4795611;29;20054;-83
2021/09/21 11:40:31;;;;;;;1.50;0.80;;;17.20;71.70;;;;;;4807433;29;20133;-84
2021/09/21 11:42:59;;;;;;;0.35;0.35;;;17.30;71.40;;;;;;4797347;29;20549;-84
2021/09/21 11:45:26;;;;;;;0.90;0.70;;;17.30;71.30;;;;;;4825725;29;20070;-83
2021/09/21 11:47:52;;;;;;;2.95;0.90;;;17.40;71.10;;;;;;4823998;29;20502;-85
2021/09/21 11:50:23;;;;;;;0.63;0.50;;;17.50;70.80;;;;;;4809335;29;20042;-84
2021/09/21 11:52:52;;;;;;;3.10;0.80;;;17.50;70.50;;;;;;4825343;29;21530;-85
2021/09/21 11:55:29;;;;;;;1.23;0.88;;;17.70;70.70;;;;;;4809686;29;20050;-89
2021/09/21 11:57:55;;;;;;;2.00;0.80;;;17.70;70.50;;;;;;4811507;29;20062;-79
2021/09/21 12:00:29;;;;;;;1.00;0.52;;;17.70;70.50;;;;;;4810028;29;20035;-82
2021/09/21 12:02:57;;;;;;;0.63;0.50;;;17.70;70.40;;;;;;4812107;29;20083;-81
2021/09/21 12:05:30;;;;;;;0.70;0.70;;;17.80;70.40;;;;;;4802632;29;20043;-80
2021/09/21 12:07:59;;;;;;;0.40;0.40;;;17.80;70.30;;;;;;4823967;29;20055;-80
2021/09/21 12:10:33;;;;;;;0.70;0.63;;;17.80;70.20;;;;;;4876145;29;20078;-80
2021/09/21 12:13:01;;;;;;;0.57;0.57;;;17.90;70.10;;;;;;4825392;29;20144;-80
2021/09/21 12:15:31;;;;;;;0.65;0.50;;;18.00;70.00;;;;;;4824609;29;20046;-79
2021/09/21 12:17:59;;;;;;;0.82;0.52;;;18.10;69.80;;;;;;4820386;29;20042;-80
2021/09/21 12:20:29;;;;;;;0.63;0.52;;;18.10;69.60;;;;;;4842311;29;20084;-78
2021/09/21 12:22:55;;;;;;;0.90;0.60;;;18.10;69.50;;;;;;4843483;29;20543;-78
2021/09/21 12:25:23;;;;;;;0.63;0.60;;;18.10;69.50;;;;;;4851974;29;20079;-79
2021/09/21 12:28:09;;;;;;;1.40;0.90;;;18.20;69.50;;;;;;4853548;29;20035;-82
2021/09/21 12:30:39;;;;;;;1.00;0.70;;;18.30;69.30;;;;;;4865739;29;20041;-80
2021/09/21 12:33:08;;;;;;;0.50;0.50;;;18.30;69.10;;;;;;4847254;29;20057;-80
2021/09/21 12:35:38;;;;;;;0.40;0.40;;;18.30;69.00;;;;;;4868212;29;20389;-79
2021/09/21 12:38:09;;;;;;;0.70;0.67;;;18.40;69.10;;;;;;4866226;29;20033;-79
2021/09/21 12:40:51;;;;;;;0.50;0.50;;;18.40;69.10;;;;;;4855844;29;20559;-82
2021/09/21 12:43:30;;;;;;;0.63;0.63;;;18.30;69.10;;;;;;4835775;29;20046;-85
2021/09/21 12:46:01;;;;;;;0.40;0.40;;;18.30;69.10;;;;;;4956571;23;20416;-85
2021/09/21 12:52:12;;;;;;;0.57;0.50;;;18.30;69.20;;;;;;4888110;29;19926;-79
2021/09/21 12:55:27;;;;;;;0.65;0.65;;;18.30;69.40;;;;;;4863242;29;20060;-85
2021/09/21 12:58:03;;;;;;;0.80;0.52;;;18.30;69.20;;;;;;4857459;29;20143;-90
2021/09/21 13:01:19;;;;;;;0.85;0.60;;;18.40;69.40;;;;;;4857251;29;20076;-84
2021/09/21 13:08:44;;;;;;;0.40;0.40;;;18.50;69.20;;;;;;4787865;30;20414;-88
2021/09/21 13:11:18;;;;;;;0.57;0.57;;;18.40;69.20;;;;;;4754680;30;20190;-86
2021/09/21 13:13:48;;;;;;;0.88;0.65;;;18.50;69.40;;;;;;4764978;30;20053;-86
2021/09/21 13:16:16;;;;;;;0.40;0.40;;;18.40;69.30;;;;;;4726037;30;20054;-85
2021/09/21 13:18:44;;;;;;;0.77;0.60;;;18.30;69.30;;;;;;4734278;30;20142;-86
2021/09/21 13:21:47;;;;;;;1.05;0.70;;;18.40;69.30;;;;;;4724948;30;20043;-87
2021/09/21 13:24:13;;;;;;;2.03;0.80;;;18.30;69.10;;;;;;4749713;30;20051;-82
2021/09/21 13:26:39;;;;;;;0.60;0.60;;;18.40;69.20;;;;;;4751330;29;20361;-83
2021/09/21 13:29:14;;;;;;;0.35;0.35;;;18.40;69.20;;;;;;4843025;29;20520;-86
2021/09/21 13:31:40;;;;;;;0.50;0.50;;;18.40;69.20;;;;;;4808247;29;20276;-80
2021/09/21 13:34:33;;;;;;;0.38;0.35;;;18.40;69.10;;;;;;4812625;29;20132;-83
2021/09/21 13:37:13;;;;;;;0.70;0.70;;;18.50;69.00;;;;;;4798112;29;20220;-85
2021/09/21 13:39:41;;;;;;;0.50;0.50;;;18.50;69.00;;;;;;4823744;29;20115;-87
2021/09/21 13:42:07;;;;;;;0.68;0.47;;;18.60;69.00;;;;;;4821278;29;20060;-83
2021/09/21 13:54:42;;;;;;;0.60;0.50;;;18.40;69.00;;;;;;4803111;29;20054;-84
2021/09/21 13:57:14;;;;;;;0.68;0.50;;;18.40;69.10;;;;;;4820427;29;20113;-84
2021/09/21 14:03:32;;;;;;;0.40;0.40;;;18.40;69.00;;;;;;4825286;29;20115;-83